createdAt,value
2018-09-11T00:00:49.675Z,16.70
2018-09-11T00:03:18.312Z,16.80
2018-09-11T00:05:46.862Z,16.80
2018-09-11T00:08:15.448Z,16.80
2018-09-11T00:10:44.114Z,16.80
2018-09-11T00:13:12.716Z,16.80
2018-09-11T00:15:41.408Z,16.90
2018-09-11T00:18:09.995Z,16.90
2018-09-11T00:20:39.039Z,16.80
2018-09-11T00:23:07.637Z,16.90
2018-09-11T00:25:36.235Z,16.90
2018-09-11T00:28:04.855Z,17.00
2018-09-11T00:30:33.395Z,16.90
2018-09-11T00:33:01.952Z,16.90
2018-09-11T00:35:30.570Z,16.90
2018-09-11T00:37:59.116Z,16.70
2018-09-11T00:40:27.734Z,16.70
2018-09-11T00:42:56.365Z,16.60
2018-09-11T00:45:25.077Z,16.50
2018-09-11T00:47:54.229Z,16.60
2018-09-11T00:50:22.894Z,16.60
2018-09-11T00:52:51.504Z,16.50
2018-09-11T00:55:20.094Z,16.40
2018-09-11T00:57:48.707Z,16.40
2018-09-11T01:00:17.286Z,16.40
2018-09-11T01:02:45.901Z,16.40
2018-09-11T01:05:14.555Z,16.40
2018-09-11T01:07:43.350Z,16.40
2018-09-11T01:10:11.972Z,16.40
2018-09-11T01:12:40.690Z,16.40
2018-09-11T01:15:10.098Z,16.40
2018-09-11T01:17:39.059Z,16.40
2018-09-11T01:20:08.943Z,16.40
2018-09-11T01:22:37.653Z,16.40
2018-09-11T01:25:06.301Z,16.40
2018-09-11T01:27:34.919Z,16.40
2018-09-11T01:30:03.498Z,16.40
2018-09-11T01:32:32.092Z,16.40
2018-09-11T01:35:00.775Z,16.40
2018-09-11T01:37:29.434Z,16.40
2018-09-11T01:39:58.065Z,16.30
2018-09-11T01:42:26.782Z,16.20
2018-09-11T01:44:55.591Z,16.20
2018-09-11T01:47:24.174Z,16.00
2018-09-11T01:49:52.706Z,16.00
2018-09-11T01:52:21.317Z,16.00
2018-09-11T01:54:49.888Z,15.90
2018-09-11T01:57:18.527Z,16.00
2018-09-11T01:59:48.225Z,16.00
2018-09-11T02:02:16.754Z,16.00
2018-09-11T02:04:45.300Z,15.90
2018-09-11T02:07:13.956Z,16.00
2018-09-11T02:09:42.573Z,16.00
2018-09-11T02:12:11.493Z,16.00
2018-09-11T02:14:40.026Z,16.00
2018-09-11T02:17:08.613Z,16.00
2018-09-11T02:19:37.128Z,16.00
2018-09-11T02:22:05.714Z,15.90
2018-09-11T02:24:34.220Z,16.00
2018-09-11T02:27:02.739Z,16.00
2018-09-11T02:29:31.226Z,16.00
2018-09-11T02:31:59.856Z,15.90
2018-09-11T02:34:28.336Z,15.90
2018-09-11T02:36:56.779Z,15.90
2018-09-11T02:39:25.422Z,15.90
2018-09-11T02:41:54.068Z,15.90
2018-09-11T02:44:22.780Z,15.90
2018-09-11T02:46:51.438Z,16.00
2018-09-11T02:49:20.180Z,15.90
2018-09-11T02:51:48.944Z,15.90
2018-09-11T02:54:17.565Z,16.00
2018-09-11T02:56:46.180Z,16.00
2018-09-11T02:59:14.960Z,16.00
2018-09-11T03:01:43.636Z,16.00
2018-09-11T03:04:12.216Z,16.00
2018-09-11T03:06:40.846Z,16.10
2018-09-11T03:09:10.323Z,16.10
2018-09-11T03:11:38.917Z,16.10
2018-09-11T03:14:07.527Z,16.00
2018-09-11T03:16:36.130Z,16.00
2018-09-11T03:19:04.766Z,16.00
2018-09-11T03:21:33.361Z,15.90
2018-09-11T03:24:01.903Z,15.90
2018-09-11T03:26:30.475Z,15.80
2018-09-11T03:28:59.318Z,15.70
2018-09-11T03:31:27.956Z,15.70
2018-09-11T03:33:56.669Z,15.60
2018-09-11T03:36:25.266Z,15.60
2018-09-11T03:38:54.045Z,15.70
2018-09-11T03:41:22.682Z,15.60
2018-09-11T03:43:51.232Z,15.50
2018-09-11T03:46:20.438Z,15.50
2018-09-11T03:48:49.118Z,15.50
2018-09-11T03:51:17.670Z,15.50
2018-09-11T03:53:46.385Z,15.50
2018-09-11T03:56:15.009Z,15.50
2018-09-11T03:58:43.684Z,15.60
2018-09-11T04:01:12.324Z,15.50
2018-09-11T04:03:41.063Z,15.60
2018-09-11T04:06:09.664Z,15.50
2018-09-11T04:08:38.280Z,15.50
2018-09-11T04:11:07.068Z,15.50
2018-09-11T04:13:35.648Z,15.60
2018-09-11T04:16:04.341Z,15.60
2018-09-11T04:18:32.999Z,15.60
2018-09-11T04:21:01.744Z,15.70
2018-09-11T04:23:30.437Z,15.60
2018-09-11T04:25:59.280Z,15.50
2018-09-11T04:28:27.910Z,15.50
2018-09-11T04:30:56.454Z,15.40
2018-09-11T04:33:25.121Z,15.50
2018-09-11T04:35:53.766Z,15.50
2018-09-11T04:38:22.372Z,15.40
2018-09-11T04:40:51.148Z,15.50
2018-09-11T04:43:19.686Z,15.50
2018-09-11T04:45:48.386Z,15.40
2018-09-11T04:48:16.995Z,15.50
2018-09-11T04:50:45.740Z,15.50
2018-09-11T04:53:14.315Z,15.40
2018-09-11T04:55:43.102Z,15.40
2018-09-11T04:58:11.706Z,15.40
2018-09-11T05:00:40.505Z,15.40
2018-09-11T05:03:09.138Z,15.40
2018-09-11T05:05:37.732Z,15.50
2018-09-11T05:08:06.434Z,15.50
2018-09-11T05:10:35.094Z,15.50
2018-09-11T05:13:04.130Z,15.50
2018-09-11T05:15:32.847Z,15.50
2018-09-11T05:18:01.529Z,15.60
2018-09-11T05:20:30.099Z,15.60
2018-09-11T05:22:58.688Z,15.60
2018-09-11T05:25:27.284Z,15.60
2018-09-11T05:27:55.864Z,15.50
2018-09-11T05:33:05.284Z,15.60
2018-09-11T05:35:34.084Z,15.60
2018-09-11T05:38:03.030Z,15.60
2018-09-11T05:40:31.719Z,15.70
2018-09-11T05:43:00.665Z,15.80
2018-09-11T05:45:29.290Z,15.80
2018-09-11T05:47:57.947Z,15.90
2018-09-11T05:50:26.859Z,15.90
2018-09-11T05:52:55.455Z,16.00
2018-09-11T05:55:26.971Z,16.10
2018-09-11T05:57:55.712Z,16.20
2018-09-11T06:00:24.326Z,16.40
2018-09-11T06:02:53.124Z,16.70
2018-09-11T06:05:22.151Z,17.00
2018-09-11T06:07:50.869Z,17.00
2018-09-11T06:10:19.582Z,17.10
2018-09-11T06:12:48.211Z,16.90
2018-09-11T06:15:16.812Z,16.80
2018-09-11T06:17:45.349Z,16.70
2018-09-11T06:20:14.029Z,16.60
2018-09-11T06:22:42.680Z,16.60
2018-09-11T06:25:11.399Z,16.70
2018-09-11T06:27:40.003Z,16.70
2018-09-11T06:30:08.769Z,16.80
2018-09-11T06:32:37.422Z,16.80
2018-09-11T06:35:06.154Z,16.90
2018-09-11T06:37:35.531Z,16.80
2018-09-11T06:40:05.327Z,17.00
2018-09-11T06:42:34.037Z,17.10
2018-09-11T06:45:02.853Z,17.10
2018-09-11T06:47:31.494Z,17.20
2018-09-11T06:50:00.735Z,17.30
2018-09-11T06:52:29.338Z,17.30
2018-09-11T06:54:57.952Z,17.40
2018-09-11T06:57:26.662Z,17.50
2018-09-11T06:59:55.386Z,17.50
2018-09-11T07:02:23.974Z,17.50
2018-09-11T07:04:52.779Z,17.50
2018-09-11T07:07:21.438Z,17.50
2018-09-11T07:09:50.068Z,17.50
2018-09-11T07:12:18.787Z,17.60
2018-09-11T07:14:47.537Z,17.70
2018-09-11T07:17:16.198Z,17.70
2018-09-11T07:19:44.888Z,17.80
2018-09-11T07:22:13.525Z,18.00
2018-09-11T07:24:42.328Z,18.10
2018-09-11T07:27:10.914Z,18.30
2018-09-11T07:29:39.707Z,18.30
2018-09-11T07:32:08.363Z,18.40
2018-09-11T07:34:36.904Z,18.40
2018-09-11T07:37:05.957Z,18.60
2018-09-11T07:39:34.525Z,18.70
2018-09-11T07:42:03.265Z,18.70
2018-09-11T07:44:31.909Z,18.90
2018-09-11T07:47:00.594Z,18.90
2018-09-11T07:49:29.173Z,19.00
2018-09-11T07:51:57.856Z,19.00
2018-09-11T07:54:26.569Z,19.00
2018-09-11T07:56:55.279Z,19.00
2018-09-11T07:59:23.808Z,19.10
2018-09-11T08:01:52.393Z,19.10
2018-09-11T08:04:21.067Z,19.20
2018-09-11T08:06:49.694Z,19.30
2018-09-11T08:09:18.408Z,19.40
2018-09-11T08:11:47.139Z,19.40
2018-09-11T08:14:15.743Z,19.40
2018-09-11T08:16:44.386Z,19.50
2018-09-11T08:19:13.046Z,19.60
2018-09-11T08:21:41.684Z,19.60
2018-09-11T08:24:13.690Z,19.60
2018-09-11T08:26:42.329Z,19.80
2018-09-11T08:29:10.991Z,19.90
2018-09-11T08:31:39.698Z,20.10
2018-09-11T08:34:08.483Z,20.00
2018-09-11T08:36:37.147Z,20.10
2018-09-11T08:39:08.375Z,20.20
2018-09-11T08:41:37.209Z,20.30
2018-09-11T08:44:06.084Z,20.20
2018-09-11T08:46:35.944Z,20.20
2018-09-11T08:49:04.695Z,20.10
2018-09-11T08:51:33.334Z,20.00
2018-09-11T08:54:02.018Z,19.90
2018-09-11T08:56:30.760Z,20.20
2018-09-11T08:58:59.630Z,20.20
2018-09-11T09:01:28.260Z,20.50
2018-09-11T09:03:56.925Z,20.40
2018-09-11T09:06:25.706Z,20.20
2018-09-11T09:08:54.310Z,20.30
2018-09-11T09:11:23.013Z,20.20
2018-09-11T09:13:51.597Z,20.20
2018-09-11T09:16:20.244Z,20.40
2018-09-11T09:21:28.579Z,20.50
2018-09-11T09:23:57.168Z,20.60
2018-09-11T09:26:25.738Z,20.70
2018-09-11T09:28:54.368Z,20.80
2018-09-11T09:31:23.186Z,20.90
2018-09-11T09:33:51.827Z,20.90
2018-09-11T09:36:20.445Z,20.80
2018-09-11T09:38:49.023Z,20.70
2018-09-11T09:41:17.639Z,20.70
2018-09-11T09:43:46.279Z,20.80
2018-09-11T09:46:14.904Z,20.90
2018-09-11T09:48:43.613Z,20.90
2018-09-11T09:51:12.200Z,21.00
2018-09-11T09:53:41.066Z,21.10
2018-09-11T09:56:09.743Z,21.20
2018-09-11T09:58:38.323Z,21.20
2018-09-11T10:01:12.287Z,21.40
2018-09-11T10:03:41.010Z,21.50
2018-09-11T10:06:09.681Z,21.50
2018-09-11T10:08:38.548Z,21.60
2018-09-11T10:11:07.387Z,21.80
2018-09-11T10:13:36.030Z,22.00
2018-09-11T10:16:04.609Z,22.10
2018-09-11T10:18:33.304Z,22.00
2018-09-11T10:21:01.928Z,22.00
2018-09-11T10:23:30.702Z,22.10
2018-09-11T10:25:59.264Z,22.20
2018-09-11T10:28:28.437Z,22.20
2018-09-11T10:30:57.084Z,22.30
2018-09-11T10:33:25.706Z,22.40
2018-09-11T10:35:54.279Z,22.40
2018-09-11T10:38:22.891Z,22.40
2018-09-11T10:40:51.500Z,22.40
2018-09-11T10:43:20.077Z,22.40
2018-09-11T10:45:48.806Z,22.60
2018-09-11T10:48:17.411Z,22.60
2018-09-11T10:50:46.056Z,22.60
2018-09-11T10:53:14.719Z,22.60
2018-09-11T10:55:43.506Z,22.60
2018-09-11T10:58:12.250Z,22.60
2018-09-11T11:00:40.987Z,22.50
2018-09-11T11:03:09.659Z,22.70
2018-09-11T11:05:38.279Z,22.80
2018-09-11T11:08:06.934Z,22.80
2018-09-11T11:10:35.918Z,23.00
2018-09-11T11:13:04.643Z,23.10
2018-09-11T11:15:33.354Z,23.10
2018-09-11T11:18:01.980Z,23.30
2018-09-11T11:20:30.692Z,23.30
2018-09-11T11:22:59.283Z,23.40
2018-09-11T11:25:27.909Z,23.50
2018-09-11T11:27:56.582Z,23.50
2018-09-11T11:30:25.341Z,23.50
2018-09-11T11:32:54.249Z,23.50
2018-09-11T11:35:22.982Z,23.40
2018-09-11T11:37:51.777Z,23.60
2018-09-11T11:40:20.439Z,23.70
2018-09-11T11:42:49.513Z,23.70
2018-09-11T11:45:18.201Z,23.60
2018-09-11T11:47:46.822Z,23.80
2018-09-11T11:50:15.475Z,23.90
2018-09-11T11:52:44.191Z,24.00
2018-09-11T11:55:13.007Z,23.90
2018-09-11T11:57:44.665Z,24.00
2018-09-11T12:00:13.540Z,24.00
2018-09-11T12:02:42.225Z,24.00
2018-09-11T12:05:10.866Z,24.00
2018-09-11T12:07:39.887Z,24.00
2018-09-11T12:10:08.622Z,24.00
2018-09-11T12:12:37.246Z,24.10
2018-09-11T12:15:06.185Z,24.30
2018-09-11T12:17:34.891Z,24.30
2018-09-11T12:20:03.939Z,24.40
2018-09-11T12:22:32.560Z,24.50
2018-09-11T12:25:01.299Z,24.50
2018-09-11T12:27:30.004Z,24.60
2018-09-11T12:29:58.613Z,24.50
2018-09-11T12:32:27.241Z,24.40
2018-09-11T12:34:55.797Z,24.40
2018-09-11T12:37:24.521Z,24.50
2018-09-11T12:39:53.171Z,24.50
2018-09-11T12:42:21.922Z,24.60
2018-09-11T12:44:50.559Z,24.60
2018-09-11T12:47:19.350Z,24.60
2018-09-11T12:49:47.806Z,24.70
2018-09-11T12:52:16.634Z,24.70
2018-09-11T12:54:45.358Z,24.80
2018-09-11T12:57:13.993Z,24.90
2018-09-11T12:59:42.737Z,24.90
2018-09-11T13:02:11.443Z,25.00
2018-09-11T13:04:40.561Z,25.00
2018-09-11T13:07:09.263Z,25.00
2018-09-11T13:09:37.949Z,25.10
2018-09-11T13:12:06.579Z,25.10
2018-09-11T13:14:35.224Z,25.20
2018-09-11T13:17:03.830Z,25.30
2018-09-11T13:19:32.460Z,25.30
2018-09-11T13:22:01.570Z,25.40
2018-09-11T13:24:30.390Z,25.40
2018-09-11T13:26:59.032Z,25.40
2018-09-11T13:29:27.943Z,25.40
2018-09-11T13:31:56.665Z,25.30
2018-09-11T13:34:25.252Z,25.40
2018-09-11T13:36:53.869Z,25.30
2018-09-11T13:39:22.502Z,25.30
2018-09-11T13:41:51.123Z,25.10
2018-09-11T13:44:19.781Z,25.10
2018-09-11T13:46:48.641Z,25.10
2018-09-11T13:49:17.253Z,25.20
2018-09-11T13:51:45.940Z,25.30
2018-09-11T13:54:14.554Z,25.30
2018-09-11T13:56:43.212Z,25.40
2018-09-11T13:59:11.847Z,25.40
2018-09-11T14:01:40.570Z,25.40
2018-09-11T14:04:09.438Z,25.50
2018-09-11T14:06:38.219Z,25.50
2018-09-11T14:09:10.199Z,25.50
2018-09-11T14:11:38.954Z,25.50
2018-09-11T14:14:07.643Z,25.50
2018-09-11T14:16:36.330Z,25.50
2018-09-11T14:19:05.039Z,25.50
2018-09-11T14:21:33.659Z,25.60
2018-09-11T14:24:02.435Z,25.70
2018-09-11T14:26:31.254Z,25.70
2018-09-11T14:28:59.911Z,25.80
2018-09-11T14:31:28.541Z,25.80
2018-09-11T14:33:57.194Z,25.90
2018-09-11T14:36:25.861Z,25.80
2018-09-11T14:38:54.494Z,25.80
2018-09-11T14:41:23.083Z,25.80
2018-09-11T14:43:51.688Z,25.60
2018-09-11T14:46:20.372Z,25.60
2018-09-11T14:48:48.940Z,25.70
2018-09-11T14:51:17.597Z,25.70
2018-09-11T14:53:46.196Z,25.70
2018-09-11T14:56:14.891Z,25.80
2018-09-11T14:58:43.527Z,25.80
2018-09-11T15:01:12.023Z,25.80
2018-09-11T15:03:40.658Z,25.40
2018-09-11T15:06:09.560Z,25.50
2018-09-11T15:08:38.106Z,25.50
2018-09-11T15:11:06.773Z,25.60
2018-09-11T15:13:35.350Z,25.70
2018-09-11T15:16:04.012Z,25.70
2018-09-11T15:18:32.575Z,25.70
2018-09-11T15:21:01.490Z,25.70
2018-09-11T15:23:30.193Z,25.80
2018-09-11T15:25:59.478Z,25.90
2018-09-11T15:28:28.132Z,25.90
2018-09-11T15:30:56.768Z,25.90
2018-09-11T15:33:25.451Z,25.80
2018-09-11T15:35:54.121Z,25.70
2018-09-11T15:38:22.720Z,25.70
2018-09-11T15:40:51.294Z,25.80
2018-09-11T15:43:19.979Z,25.90
2018-09-11T15:45:48.775Z,26.10
2018-09-11T15:48:17.376Z,26.10
2018-09-11T15:50:46.362Z,26.10
2018-09-11T15:53:14.976Z,26.10
2018-09-11T15:55:43.596Z,26.10
2018-09-11T15:58:12.417Z,26.10
2018-09-11T16:00:41.093Z,26.20
2018-09-11T16:03:09.721Z,26.20
2018-09-11T16:05:38.318Z,26.40
2018-09-11T16:08:06.946Z,26.30
2018-09-11T16:10:35.578Z,26.20
2018-09-11T16:13:04.200Z,26.10
2018-09-11T16:15:32.885Z,26.10
2018-09-11T16:18:01.662Z,26.20
2018-09-11T16:20:30.166Z,26.10
2018-09-11T16:22:58.892Z,26.10
2018-09-11T16:25:27.574Z,26.00
2018-09-11T16:27:56.233Z,26.00
2018-09-11T16:30:24.948Z,26.00
2018-09-11T16:32:53.562Z,26.00
2018-09-11T16:35:22.216Z,26.10
2018-09-11T16:37:51.013Z,26.10
2018-09-11T16:40:19.582Z,26.00
2018-09-11T16:42:48.253Z,25.90
2018-09-11T16:45:16.738Z,25.90
2018-09-11T16:47:45.347Z,25.90
2018-09-11T16:50:14.189Z,25.80
2018-09-11T16:52:42.862Z,25.70
2018-09-11T16:55:11.558Z,25.60
2018-09-11T16:57:40.240Z,25.50
2018-09-11T17:00:09.855Z,25.40
2018-09-11T17:02:38.464Z,25.40
2018-09-11T17:05:07.986Z,25.40
2018-09-11T17:07:36.659Z,25.40
2018-09-11T17:10:05.292Z,25.40
2018-09-11T17:12:34.634Z,25.40
2018-09-11T17:15:04.324Z,25.30
2018-09-11T17:17:33.002Z,25.30
2018-09-11T17:20:02.472Z,25.20
2018-09-11T17:22:31.061Z,25.10
2018-09-11T17:24:59.746Z,25.10
2018-09-11T17:27:28.346Z,25.10
2018-09-11T17:29:56.959Z,24.90
2018-09-11T17:32:25.766Z,24.90
2018-09-11T17:34:54.433Z,24.90
2018-09-11T17:37:23.128Z,24.90
2018-09-11T17:39:51.824Z,24.80
2018-09-11T17:42:20.600Z,24.80
2018-09-11T17:44:49.221Z,24.70
2018-09-11T17:47:18.055Z,24.70
2018-09-11T17:49:46.696Z,24.60
2018-09-11T17:52:15.580Z,24.60
2018-09-11T17:54:44.395Z,24.60
2018-09-11T17:57:13.069Z,24.50
2018-09-11T17:59:41.714Z,24.50
2018-09-11T18:02:10.373Z,24.50
2018-09-11T18:04:38.957Z,24.50
2018-09-11T18:07:07.725Z,24.50
2018-09-11T18:09:36.322Z,24.60
2018-09-11T18:12:05.116Z,24.50
2018-09-11T18:14:33.782Z,24.50
2018-09-11T18:17:02.555Z,24.50
2018-09-11T18:19:31.310Z,24.40
2018-09-11T18:22:00.012Z,24.30
2018-09-11T18:24:28.614Z,24.20
2018-09-11T18:26:57.292Z,24.20
2018-09-11T18:29:26.204Z,24.10
2018-09-11T18:31:55.085Z,24.10
2018-09-11T18:34:23.727Z,24.10
2018-09-11T18:36:52.664Z,24.00
2018-09-11T18:39:21.318Z,23.90
2018-09-11T18:41:50.013Z,23.90
2018-09-11T18:44:18.575Z,23.90
2018-09-11T18:46:47.396Z,23.80
2018-09-11T18:49:16.461Z,23.80
2018-09-11T18:51:45.220Z,23.60
2018-09-11T18:54:13.784Z,23.60
2018-09-11T18:56:42.568Z,23.60
2018-09-11T18:59:11.213Z,23.60
2018-09-11T19:01:39.881Z,23.50
2018-09-11T19:04:08.777Z,23.50
2018-09-11T19:06:37.363Z,23.40
2018-09-11T19:09:08.946Z,23.30
2018-09-11T19:11:37.658Z,23.30
2018-09-11T19:14:06.571Z,23.30
2018-09-11T19:16:35.799Z,23.30
2018-09-11T19:19:04.477Z,23.20
2018-09-11T19:21:33.181Z,23.20
2018-09-11T19:24:02.157Z,23.20
2018-09-11T19:26:30.795Z,23.10
2018-09-11T19:28:59.418Z,23.10
2018-09-11T19:31:28.096Z,23.10
2018-09-11T19:33:56.697Z,23.00
2018-09-11T19:36:25.429Z,23.00
2018-09-11T19:38:54.010Z,23.00
2018-09-11T19:41:22.641Z,22.90
2018-09-11T19:43:51.305Z,22.90
2018-09-11T19:46:20.440Z,22.90
2018-09-11T19:48:49.054Z,22.80
2018-09-11T19:51:17.637Z,22.80
2018-09-11T19:53:46.169Z,22.70
2018-09-11T19:56:14.871Z,22.70
2018-09-11T19:58:43.661Z,22.50
2018-09-11T20:01:12.329Z,22.50
2018-09-11T20:03:41.018Z,22.50
2018-09-11T20:06:09.627Z,22.40
2018-09-11T20:08:38.227Z,22.40
2018-09-11T20:11:06.889Z,22.30
2018-09-11T20:13:35.460Z,22.30
2018-09-11T20:16:04.150Z,22.30
2018-09-11T20:18:32.868Z,22.20
2018-09-11T20:21:01.506Z,22.30
2018-09-11T20:23:30.091Z,22.30
2018-09-11T20:25:58.676Z,22.30
2018-09-11T20:28:27.286Z,22.20
2018-09-11T20:30:55.841Z,22.20
2018-09-11T20:33:24.573Z,22.10
2018-09-11T20:35:53.230Z,22.10
2018-09-11T20:38:22.093Z,22.10
2018-09-11T20:40:50.754Z,22.10
2018-09-11T20:43:19.459Z,22.00
2018-09-11T20:45:48.041Z,22.00
2018-09-11T20:48:16.687Z,21.90
2018-09-11T20:50:45.365Z,21.90
2018-09-11T20:53:13.963Z,21.80
2018-09-11T20:55:42.615Z,21.80
2018-09-11T20:58:11.159Z,21.80
2018-09-11T21:00:39.864Z,21.80
2018-09-11T21:03:08.468Z,21.70
2018-09-11T21:05:37.082Z,21.70
2018-09-11T21:08:05.816Z,21.60
2018-09-11T21:10:34.517Z,21.50
2018-09-11T21:13:03.078Z,21.50
2018-09-11T21:15:31.700Z,21.40
2018-09-11T21:18:00.332Z,21.40
2018-09-11T21:20:28.917Z,21.40
2018-09-11T21:22:57.519Z,21.40
2018-09-11T21:25:26.191Z,21.30
2018-09-11T21:27:54.804Z,21.20
2018-09-11T21:30:23.562Z,21.20
2018-09-11T21:32:52.177Z,21.20
2018-09-11T21:35:20.916Z,21.20
2018-09-11T21:37:50.066Z,21.10
2018-09-11T21:40:18.716Z,21.10
2018-09-11T21:42:47.579Z,21.10
2018-09-11T21:45:16.222Z,21.10
2018-09-11T21:47:44.933Z,21.10
2018-09-11T21:50:13.556Z,21.00
2018-09-11T21:52:42.099Z,21.00
2018-09-11T21:55:10.726Z,20.90
2018-09-11T21:57:39.436Z,20.90
2018-09-11T22:00:10.177Z,20.80
2018-09-11T22:02:39.039Z,20.80
2018-09-11T22:05:08.437Z,20.80
2018-09-11T22:07:37.124Z,20.80
2018-09-11T22:10:07.561Z,20.80
2018-09-11T22:12:36.238Z,20.80
2018-09-11T22:15:05.246Z,20.80
2018-09-11T22:17:33.916Z,20.70
2018-09-11T22:20:02.527Z,20.70
2018-09-11T22:22:31.183Z,20.80
2018-09-11T22:24:59.687Z,20.80
2018-09-11T22:27:28.593Z,20.80
2018-09-11T22:29:57.531Z,20.90
2018-09-11T22:32:26.242Z,20.80
2018-09-11T22:34:54.877Z,20.90
2018-09-11T22:37:23.461Z,20.80
2018-09-11T22:39:58.426Z,20.80
2018-09-11T22:42:27.047Z,20.70
2018-09-11T22:44:55.628Z,20.60
2018-09-11T22:47:24.294Z,20.60
2018-09-11T22:49:52.886Z,20.50
2018-09-11T22:52:21.497Z,20.50
2018-09-11T22:54:50.062Z,20.40
2018-09-11T22:57:18.727Z,20.40
2018-09-11T22:59:47.273Z,20.40
2018-09-11T23:02:15.858Z,20.40
2018-09-11T23:04:44.506Z,20.50
2018-09-11T23:07:13.162Z,20.40
2018-09-11T23:09:41.760Z,20.40
2018-09-11T23:12:10.382Z,20.30
2018-09-11T23:14:38.969Z,20.30
2018-09-11T23:17:07.555Z,20.40
2018-09-11T23:19:36.096Z,20.40
2018-09-11T23:22:04.692Z,20.40
2018-09-11T23:24:33.268Z,20.40
2018-09-11T23:27:01.920Z,20.30
2018-09-11T23:29:30.542Z,20.30
2018-09-11T23:31:59.132Z,20.30
2018-09-11T23:34:27.786Z,20.30
2018-09-11T23:36:56.329Z,20.30
2018-09-11T23:39:24.993Z,20.40
2018-09-11T23:41:53.537Z,20.30
2018-09-11T23:44:22.385Z,20.40
2018-09-11T23:46:50.967Z,20.40
2018-09-11T23:49:19.591Z,20.40
2018-09-11T23:51:48.245Z,20.40
2018-09-11T23:54:16.889Z,20.30
2018-09-11T23:56:45.428Z,20.30
2018-09-11T23:59:14.028Z,20.30
